createdAt,value
2019-03-17T00:01:26.429Z,63.77
2019-03-17T00:03:54.620Z,63.75
2019-03-17T00:06:22.826Z,63.78
2019-03-17T00:08:51.018Z,63.54
2019-03-17T00:11:19.226Z,63.73
2019-03-17T00:13:47.415Z,63.71
2019-03-17T00:16:15.612Z,63.50
2019-03-17T00:18:43.805Z,63.82
2019-03-17T00:21:12.073Z,63.79
2019-03-17T00:23:40.269Z,63.65
2019-03-17T00:26:08.475Z,63.54
2019-03-17T00:28:36.665Z,64.40
2019-03-17T00:31:04.868Z,64.40
2019-03-17T00:33:33.071Z,63.52
2019-03-17T00:36:01.281Z,64.19
2019-03-17T00:38:29.470Z,64.00
2019-03-17T00:40:57.675Z,64.20
2019-03-17T00:43:25.866Z,63.69
2019-03-17T00:45:54.070Z,64.03
2019-03-17T00:48:23.888Z,63.84
2019-03-17T00:50:52.090Z,64.14
2019-03-17T00:53:20.309Z,64.21
2019-03-17T00:55:48.499Z,64.19
2019-03-17T00:58:18.316Z,63.80
2019-03-17T01:00:46.528Z,64.03
2019-03-17T01:03:14.712Z,64.22
2019-03-17T01:05:43.006Z,63.95
2019-03-17T01:08:11.190Z,63.83
2019-03-17T01:10:39.380Z,64.15
2019-03-17T01:13:07.588Z,64.33
2019-03-17T01:15:35.773Z,64.45
2019-03-17T01:18:03.976Z,64.21
2019-03-17T01:20:32.165Z,64.42
2019-03-17T01:23:00.359Z,64.06
2019-03-17T01:25:28.562Z,64.06
2019-03-17T01:27:56.749Z,64.41
2019-03-17T01:30:25.694Z,64.84
2019-03-17T01:32:53.962Z,64.83
2019-03-17T01:35:22.172Z,65.11
2019-03-17T01:37:51.549Z,64.39
2019-03-17T01:40:19.749Z,64.92
2019-03-17T01:42:47.937Z,64.68
2019-03-17T01:45:16.142Z,64.59
2019-03-17T01:47:44.329Z,64.71
2019-03-17T01:50:13.712Z,64.71
2019-03-17T01:52:41.913Z,65.43
2019-03-17T01:55:11.385Z,65.75
2019-03-17T01:57:39.848Z,65.84
2019-03-17T02:00:11.093Z,65.62
2019-03-17T02:02:39.291Z,65.87
2019-03-17T02:05:08.009Z,66.55
2019-03-17T02:07:36.219Z,66.18
2019-03-17T02:10:05.547Z,66.98
2019-03-17T02:12:33.755Z,66.57
2019-03-17T02:15:01.944Z,66.88
2019-03-17T02:17:30.156Z,67.33
2019-03-17T02:19:58.345Z,66.72
2019-03-17T02:22:26.789Z,66.57
2019-03-17T02:24:54.976Z,67.03
2019-03-17T02:27:23.182Z,66.59
2019-03-17T02:29:51.374Z,67.24
2019-03-17T02:32:21.207Z,67.42
2019-03-17T02:34:49.397Z,68.14
2019-03-17T02:37:17.595Z,67.35
2019-03-17T02:39:45.792Z,67.45
2019-03-17T02:42:14.014Z,67.87
2019-03-17T02:44:43.824Z,67.56
2019-03-17T02:47:12.013Z,67.69
2019-03-17T02:49:40.223Z,68.10
2019-03-17T02:52:08.418Z,67.53
2019-03-17T02:54:36.686Z,67.85
2019-03-17T02:57:04.817Z,68.08
2019-03-17T02:59:33.006Z,67.74
2019-03-17T03:02:01.212Z,67.75
2019-03-17T03:04:29.402Z,68.41
2019-03-17T03:06:57.594Z,68.68
2019-03-17T03:09:25.813Z,68.64
2019-03-17T03:11:53.995Z,68.51
2019-03-17T03:14:22.210Z,68.45
2019-03-17T03:16:50.415Z,68.99
2019-03-17T03:19:18.600Z,68.89
2019-03-17T03:21:46.800Z,69.77
2019-03-17T03:24:14.982Z,69.14
2019-03-17T03:26:44.318Z,69.24
2019-03-17T03:29:12.508Z,68.89
2019-03-17T03:31:40.775Z,69.09
2019-03-17T03:34:08.997Z,69.31
2019-03-17T03:36:37.191Z,69.71
2019-03-17T03:39:07.438Z,69.72
2019-03-17T03:41:35.712Z,69.75
2019-03-17T03:44:03.906Z,70.01
2019-03-17T03:46:32.109Z,69.60
2019-03-17T03:49:00.305Z,69.73
2019-03-17T03:51:28.503Z,69.71
2019-03-17T03:53:56.708Z,69.94
2019-03-17T03:56:24.918Z,70.11
2019-03-17T03:58:54.321Z,70.56
2019-03-17T04:01:22.524Z,70.51
2019-03-17T04:03:50.715Z,70.74
2019-03-17T04:06:26.333Z,71.24
2019-03-17T04:08:48.839Z,71.70
2019-03-17T04:11:17.128Z,72.47
2019-03-17T04:13:45.319Z,72.50
2019-03-17T04:16:13.535Z,73.09
2019-03-17T04:18:41.728Z,72.89
2019-03-17T04:21:09.974Z,73.23
2019-03-17T04:23:38.122Z,73.23
2019-03-17T04:26:06.589Z,73.10
2019-03-17T04:28:34.794Z,73.89
2019-03-17T04:31:02.982Z,73.67
2019-03-17T04:33:31.177Z,74.51
2019-03-17T04:35:59.389Z,73.98
2019-03-17T04:38:27.575Z,74.29
2019-03-17T04:40:55.780Z,74.35
2019-03-17T04:43:23.980Z,74.92
2019-03-17T04:45:52.179Z,74.54
2019-03-17T04:48:20.375Z,74.65
2019-03-17T04:50:48.580Z,76.15
2019-03-17T04:53:16.791Z,75.81
2019-03-17T04:55:44.990Z,75.38
2019-03-17T04:58:13.181Z,75.32
2019-03-17T05:00:41.386Z,76.05
2019-03-17T05:03:09.582Z,75.52
2019-03-17T05:05:37.800Z,75.63
2019-03-17T05:08:07.165Z,75.88
2019-03-17T05:10:35.383Z,75.51
2019-03-17T05:13:03.583Z,75.92
2019-03-17T05:15:31.803Z,76.02
2019-03-17T05:18:00.078Z,76.22
2019-03-17T05:20:28.284Z,76.25
2019-03-17T05:22:56.485Z,75.79
2019-03-17T05:25:24.700Z,75.79
2019-03-17T05:27:53.631Z,76.13
2019-03-17T05:30:23.468Z,76.53
2019-03-17T05:32:51.663Z,76.53
2019-03-17T05:35:19.882Z,75.98
2019-03-17T05:37:48.104Z,75.98
2019-03-17T05:40:16.275Z,76.19
2019-03-17T05:42:44.472Z,75.95
2019-03-17T05:45:12.677Z,75.83
2019-03-17T05:47:40.877Z,75.83
2019-03-17T05:50:09.625Z,76.51
2019-03-17T05:52:37.813Z,76.51
2019-03-17T05:55:08.512Z,74.99
2019-03-17T05:57:36.708Z,76.33
2019-03-17T06:00:10.590Z,77.55
2019-03-17T06:02:38.785Z,78.10
2019-03-17T06:05:07.824Z,78.36
2019-03-17T06:07:36.012Z,78.51
2019-03-17T06:10:04.681Z,78.16
2019-03-17T06:12:32.895Z,77.79
2019-03-17T06:15:01.092Z,77.70
2019-03-17T06:17:29.275Z,77.77
2019-03-17T06:19:57.478Z,77.71
2019-03-17T06:22:25.687Z,77.81
2019-03-17T06:24:53.885Z,77.75
2019-03-17T06:27:23.128Z,77.71
2019-03-17T06:29:51.318Z,77.68
2019-03-17T06:32:19.527Z,77.45
2019-03-17T06:34:47.719Z,77.10
2019-03-17T06:37:16.000Z,77.10
2019-03-17T06:39:45.820Z,76.95
2019-03-17T06:42:14.022Z,76.65
2019-03-17T06:44:42.221Z,76.84
2019-03-17T06:47:11.756Z,76.67
2019-03-17T06:49:39.957Z,76.58
2019-03-17T06:52:09.782Z,76.46
2019-03-17T06:54:37.974Z,76.54
2019-03-17T06:57:06.254Z,76.74
2019-03-17T06:59:34.909Z,76.74
2019-03-17T07:02:03.577Z,76.47
2019-03-17T07:04:31.764Z,76.57
2019-03-17T07:06:59.964Z,76.61
2019-03-17T07:09:28.157Z,76.29
2019-03-17T07:11:56.363Z,75.84
2019-03-17T07:14:24.629Z,76.14
2019-03-17T07:16:53.950Z,76.14
2019-03-17T07:19:23.852Z,76.21
2019-03-17T07:21:52.053Z,76.23
2019-03-17T07:24:20.243Z,76.40
2019-03-17T07:26:48.456Z,76.21
2019-03-17T07:29:16.646Z,76.30
2019-03-17T07:31:44.859Z,76.17
2019-03-17T07:34:14.097Z,76.19
2019-03-17T07:36:42.299Z,76.21
2019-03-17T07:39:12.034Z,76.03
2019-03-17T07:41:40.574Z,76.03
2019-03-17T07:44:08.769Z,76.17
2019-03-17T07:46:36.966Z,76.23
2019-03-17T07:49:06.344Z,75.85
2019-03-17T07:51:34.538Z,75.80
2019-03-17T07:54:02.731Z,75.71
2019-03-17T07:56:30.942Z,75.81
2019-03-17T07:58:59.133Z,75.63
2019-03-17T08:01:27.322Z,75.63
2019-03-17T08:03:55.529Z,75.95
2019-03-17T08:06:23.719Z,76.02
2019-03-17T08:08:51.926Z,76.38
2019-03-17T08:11:21.978Z,76.71
2019-03-17T08:13:51.311Z,76.34
2019-03-17T08:16:19.973Z,76.34
2019-03-17T08:18:48.177Z,76.49
2019-03-17T08:21:16.364Z,75.54
2019-03-17T08:23:44.575Z,75.54
2019-03-17T08:26:13.235Z,75.17
2019-03-17T08:28:41.429Z,75.70
2019-03-17T08:31:11.114Z,75.67
2019-03-17T08:33:39.302Z,75.40
2019-03-17T08:36:07.504Z,75.00
2019-03-17T08:38:35.689Z,75.68
2019-03-17T08:41:03.897Z,75.68
2019-03-17T08:43:32.089Z,75.93
2019-03-17T08:46:00.295Z,75.88
2019-03-17T08:48:28.487Z,75.31
2019-03-17T08:50:56.709Z,74.60
2019-03-17T08:53:24.902Z,73.19
2019-03-17T08:55:54.734Z,72.77
2019-03-17T08:58:23.941Z,72.41
2019-03-17T09:00:53.579Z,71.97
2019-03-17T09:03:23.422Z,71.56
2019-03-17T09:05:53.239Z,71.12
2019-03-17T09:08:33.846Z,71.34
2019-03-17T09:10:52.069Z,71.01
2019-03-17T09:13:20.264Z,70.87
2019-03-17T09:15:48.450Z,70.74
2019-03-17T09:18:16.655Z,70.74
2019-03-17T09:20:44.846Z,70.39
2019-03-17T09:23:13.051Z,70.17
2019-03-17T09:25:41.239Z,70.22
2019-03-17T09:28:09.692Z,70.40
2019-03-17T09:30:37.882Z,70.52
2019-03-17T09:33:06.089Z,69.99
2019-03-17T09:35:34.281Z,69.39
2019-03-17T09:38:02.490Z,68.62
2019-03-17T09:40:30.684Z,67.19
2019-03-17T09:42:58.898Z,67.72
2019-03-17T09:45:27.099Z,65.80
2019-03-17T09:47:55.298Z,66.89
2019-03-17T09:50:24.538Z,67.15
2019-03-17T09:52:53.195Z,67.71
2019-03-17T09:55:21.396Z,66.96
2019-03-17T09:57:51.213Z,67.24
2019-03-17T10:00:20.850Z,66.91
2019-03-17T10:02:49.052Z,66.20
2019-03-17T10:05:17.273Z,65.82
2019-03-17T10:07:45.457Z,65.82
2019-03-17T10:10:21.847Z,65.01
2019-03-17T10:12:50.043Z,64.86
2019-03-17T10:15:21.384Z,64.79
2019-03-17T10:17:49.819Z,64.79
2019-03-17T10:20:18.856Z,65.30
2019-03-17T10:22:47.043Z,64.20
2019-03-17T10:25:15.245Z,64.01
2019-03-17T10:27:43.517Z,63.35
2019-03-17T10:30:19.732Z,62.43
2019-03-17T10:32:47.919Z,62.43
2019-03-17T10:35:17.247Z,62.29
2019-03-17T10:37:45.440Z,61.88
2019-03-17T10:40:17.665Z,59.65
2019-03-17T10:42:45.861Z,59.65
2019-03-17T10:45:15.138Z,60.11
2019-03-17T10:47:43.306Z,60.11
2019-03-17T10:50:16.505Z,60.34
2019-03-17T10:52:44.700Z,60.10
2019-03-17T10:55:12.897Z,59.17
2019-03-17T10:57:41.090Z,60.70
2019-03-17T11:00:18.016Z,61.76
2019-03-17T11:02:46.201Z,61.76
2019-03-17T11:05:14.653Z,61.52
2019-03-17T11:07:42.860Z,60.49
2019-03-17T11:10:11.889Z,60.49
2019-03-17T11:12:40.157Z,62.55
2019-03-17T11:15:15.999Z,61.82
2019-03-17T11:17:44.205Z,62.91
2019-03-17T11:20:12.936Z,62.70
2019-03-17T11:22:41.130Z,62.72
2019-03-17T11:25:12.716Z,61.45
2019-03-17T11:27:40.917Z,60.73
2019-03-17T11:30:14.716Z,60.55
2019-03-17T11:32:43.956Z,60.75
2019-03-17T11:35:12.150Z,61.29
2019-03-17T11:37:40.355Z,60.75
2019-03-17T11:40:11.800Z,60.75
2019-03-17T11:42:41.304Z,60.98
2019-03-17T11:45:13.965Z,59.78
2019-03-17T11:47:43.674Z,59.78
2019-03-17T11:50:13.956Z,60.73
2019-03-17T11:52:42.160Z,60.07
2019-03-17T11:55:11.590Z,60.34
2019-03-17T11:57:39.791Z,59.74
2019-03-17T12:00:16.588Z,59.01
2019-03-17T12:02:46.416Z,57.56
2019-03-17T12:05:14.606Z,59.40
2019-03-17T12:07:43.277Z,60.19
2019-03-17T12:10:16.496Z,61.59
2019-03-17T12:12:44.701Z,63.85
2019-03-17T12:15:18.530Z,64.54
2019-03-17T12:17:46.726Z,64.26
2019-03-17T12:20:15.268Z,64.26
2019-03-17T12:22:43.461Z,64.64
2019-03-17T12:25:15.818Z,64.64
2019-03-17T12:27:44.010Z,64.13
2019-03-17T12:30:23.734Z,63.72
2019-03-17T12:32:52.559Z,63.29
2019-03-17T12:35:21.306Z,63.00
2019-03-17T12:37:49.511Z,62.64
2019-03-17T12:40:17.705Z,62.61
2019-03-17T12:42:45.902Z,61.61
2019-03-17T12:45:14.279Z,62.16
2019-03-17T12:47:42.468Z,62.16
2019-03-17T12:50:20.708Z,62.15
2019-03-17T12:52:48.956Z,61.69
2019-03-17T12:55:17.105Z,61.84
2019-03-17T12:57:45.300Z,61.41
2019-03-17T13:00:21.549Z,61.25
2019-03-17T13:02:49.740Z,61.61
2019-03-17T13:05:19.570Z,61.61
2019-03-17T13:07:47.769Z,65.19
2019-03-17T13:10:18.807Z,65.19
2019-03-17T13:12:46.996Z,65.77
2019-03-17T13:15:15.204Z,66.39
2019-03-17T13:17:43.402Z,65.42
2019-03-17T13:20:15.098Z,64.40
2019-03-17T13:22:44.578Z,64.40
2019-03-17T13:25:14.412Z,63.54
2019-03-17T13:27:42.603Z,63.05
2019-03-17T13:30:14.783Z,63.10
2019-03-17T13:32:44.600Z,62.56
2019-03-17T13:35:13.051Z,61.21
2019-03-17T13:37:41.255Z,61.61
2019-03-17T13:40:28.771Z,62.12
2019-03-17T13:42:49.116Z,61.87
2019-03-17T13:45:17.293Z,60.51
2019-03-17T13:47:45.496Z,61.44
2019-03-17T13:50:15.027Z,61.41
2019-03-17T13:52:43.228Z,61.60
2019-03-17T13:55:12.314Z,62.17
2019-03-17T13:57:42.826Z,61.01
2019-03-17T14:00:14.814Z,61.96
2019-03-17T14:02:43.491Z,62.05
2019-03-17T14:05:12.215Z,62.05
2019-03-17T14:07:40.869Z,62.21
2019-03-17T14:10:17.161Z,61.38
2019-03-17T14:12:45.356Z,61.53
2019-03-17T14:15:15.302Z,61.27
2019-03-17T14:17:44.918Z,60.86
2019-03-17T14:20:21.042Z,61.17
2019-03-17T14:22:49.744Z,61.09
2019-03-17T14:25:23.748Z,60.76
2019-03-17T14:27:51.957Z,60.56
2019-03-17T14:30:20.150Z,60.56
2019-03-17T14:32:48.420Z,60.85
2019-03-17T14:35:16.623Z,60.73
2019-03-17T14:37:44.811Z,60.75
2019-03-17T14:40:14.556Z,60.22
2019-03-17T14:42:43.028Z,60.72
2019-03-17T14:45:13.357Z,60.31
2019-03-17T14:47:41.553Z,60.30
2019-03-17T14:50:12.960Z,60.40
2019-03-17T14:52:41.161Z,60.75
2019-03-17T14:55:09.348Z,60.75
2019-03-17T14:57:37.552Z,60.33
2019-03-17T15:00:11.629Z,58.75
2019-03-17T15:02:39.843Z,59.39
2019-03-17T15:05:09.076Z,58.48
2019-03-17T15:07:37.325Z,59.15
2019-03-17T15:10:13.921Z,59.11
2019-03-17T15:12:42.110Z,58.72
2019-03-17T15:15:18.817Z,59.05
2019-03-17T15:17:47.577Z,58.37
2019-03-17T15:20:18.178Z,59.16
2019-03-17T15:22:46.375Z,59.17
2019-03-17T15:25:14.576Z,58.77
2019-03-17T15:27:42.766Z,58.77
2019-03-17T15:30:30.167Z,59.01
2019-03-17T15:32:58.360Z,58.21
2019-03-17T15:35:26.565Z,58.49
2019-03-17T15:37:54.751Z,59.11
2019-03-17T15:40:22.951Z,59.11
2019-03-17T15:42:51.135Z,58.84
2019-03-17T15:45:21.837Z,58.60
2019-03-17T15:47:50.050Z,58.18
2019-03-17T15:50:20.337Z,58.90
2019-03-17T15:52:48.722Z,58.90
2019-03-17T15:55:17.350Z,59.00
2019-03-17T15:57:45.552Z,59.00
2019-03-17T16:00:24.725Z,59.26
2019-03-17T16:02:46.939Z,59.06
2019-03-17T16:05:15.145Z,58.92
2019-03-17T16:07:43.361Z,57.94
2019-03-17T16:10:26.589Z,58.08
2019-03-17T16:12:54.790Z,57.79
2019-03-17T16:15:22.989Z,57.79
2019-03-17T16:17:51.181Z,57.93
2019-03-17T16:20:23.189Z,56.98
2019-03-17T16:22:51.378Z,56.98
2019-03-17T16:25:21.886Z,58.10
2019-03-17T16:27:50.341Z,58.01
2019-03-17T16:30:23.464Z,58.28
2019-03-17T16:32:51.681Z,58.45
2019-03-17T16:35:19.880Z,58.41
2019-03-17T16:37:48.085Z,58.51
2019-03-17T16:40:18.875Z,58.38
2019-03-17T16:42:47.088Z,58.96
2019-03-17T16:45:16.415Z,58.96
2019-03-17T16:47:44.620Z,59.31
2019-03-17T16:50:16.980Z,59.49
2019-03-17T16:52:45.183Z,59.49
2019-03-17T16:55:13.373Z,59.42
2019-03-17T16:57:41.647Z,59.85
2019-03-17T17:00:25.196Z,59.85
2019-03-17T17:02:53.492Z,60.04
2019-03-17T17:05:22.499Z,60.19
2019-03-17T17:07:50.715Z,61.26
2019-03-17T17:10:23.950Z,61.26
2019-03-17T17:12:52.148Z,61.61
2019-03-17T17:15:33.122Z,62.24
2019-03-17T17:18:01.328Z,62.26
2019-03-17T17:20:33.437Z,62.26
2019-03-17T17:23:01.644Z,62.46
2019-03-17T17:25:29.830Z,62.46
2019-03-17T17:27:58.402Z,62.46
2019-03-17T17:30:26.594Z,62.00
2019-03-17T17:32:54.818Z,62.00
2019-03-17T17:35:23.008Z,61.91
2019-03-17T17:37:51.207Z,61.82
2019-03-17T17:40:22.652Z,62.20
2019-03-17T17:42:50.868Z,62.45
2019-03-17T17:45:24.048Z,62.68
2019-03-17T17:47:52.248Z,62.73
2019-03-17T17:50:28.105Z,62.95
2019-03-17T17:52:56.974Z,62.87
2019-03-17T17:55:26.266Z,62.87
2019-03-17T17:57:54.481Z,62.82
2019-03-17T18:00:24.314Z,62.67
2019-03-17T18:02:52.546Z,62.82
2019-03-17T18:05:20.792Z,62.94
2019-03-17T18:07:49.968Z,63.16
2019-03-17T18:10:18.687Z,63.17
2019-03-17T18:12:46.954Z,63.17
2019-03-17T18:15:18.048Z,63.48
2019-03-17T18:17:46.255Z,63.41
2019-03-17T18:20:14.453Z,63.37
2019-03-17T18:22:42.651Z,63.57
2019-03-17T18:25:13.182Z,63.64
2019-03-17T18:27:41.395Z,63.48
2019-03-17T18:30:12.225Z,63.54
2019-03-17T18:32:40.414Z,63.40
2019-03-17T18:35:09.554Z,63.50
2019-03-17T18:37:37.762Z,63.64
2019-03-17T18:40:08.993Z,63.63
2019-03-17T18:42:37.200Z,63.61
2019-03-17T18:45:24.944Z,63.64
2019-03-17T18:47:53.146Z,63.97
2019-03-17T18:50:21.441Z,64.38
2019-03-17T18:52:49.881Z,64.46
2019-03-17T18:55:18.267Z,64.84
2019-03-17T18:57:46.483Z,64.90
2019-03-17T19:00:19.212Z,64.78
2019-03-17T19:02:48.897Z,65.09
2019-03-17T19:05:20.029Z,64.82
2019-03-17T19:07:47.407Z,64.82
2019-03-17T19:10:17.755Z,65.17
2019-03-17T19:12:46.423Z,65.11
2019-03-17T19:15:21.037Z,65.11
2019-03-17T19:17:49.257Z,65.24
2019-03-17T19:20:19.639Z,65.09
2019-03-17T19:22:47.846Z,64.88
2019-03-17T19:25:19.626Z,64.83
2019-03-17T19:27:47.836Z,64.78
2019-03-17T19:30:22.639Z,64.90
2019-03-17T19:32:50.808Z,64.90
2019-03-17T19:35:19.003Z,64.97
2019-03-17T19:37:47.209Z,65.12
2019-03-17T19:40:19.153Z,65.56
2019-03-17T19:42:58.112Z,65.93
2019-03-17T19:45:17.272Z,65.85
2019-03-17T19:47:45.473Z,66.39
2019-03-17T19:50:20.933Z,66.18
2019-03-17T19:52:49.129Z,66.46
2019-03-17T19:55:17.322Z,66.63
2019-03-17T19:57:46.358Z,66.53
2019-03-17T20:00:18.245Z,66.91
2019-03-17T20:02:47.699Z,66.52
2019-03-17T20:05:16.125Z,66.22
2019-03-17T20:07:44.570Z,66.17
2019-03-17T20:10:29.632Z,65.91
2019-03-17T20:13:10.439Z,65.71
2019-03-17T20:15:27.747Z,65.63
2019-03-17T20:17:55.955Z,65.58
2019-03-17T20:20:24.155Z,65.53
2019-03-17T20:22:52.356Z,65.28
2019-03-17T20:25:20.548Z,65.22
2019-03-17T20:27:48.752Z,65.23
2019-03-17T20:30:19.034Z,65.47
2019-03-17T20:32:47.245Z,65.36
2019-03-17T20:35:15.434Z,65.27
2019-03-17T20:37:43.633Z,65.12
2019-03-17T20:40:15.091Z,65.02
2019-03-17T20:42:43.289Z,65.18
2019-03-17T20:45:12.537Z,65.25
2019-03-17T20:47:40.802Z,65.15
2019-03-17T20:50:12.004Z,65.21
2019-03-17T20:52:40.193Z,65.13
2019-03-17T20:55:09.739Z,65.20
2019-03-17T20:57:38.184Z,65.47
2019-03-17T21:00:16.971Z,65.47
2019-03-17T21:02:45.157Z,65.51
2019-03-17T21:05:13.378Z,65.64
2019-03-17T21:07:41.825Z,65.61
2019-03-17T21:10:16.313Z,65.68
2019-03-17T21:12:44.590Z,65.68
2019-03-17T21:15:18.759Z,65.81
2019-03-17T21:17:46.973Z,65.81
2019-03-17T21:20:21.290Z,65.90
2019-03-17T21:22:49.490Z,66.24
2019-03-17T21:25:18.341Z,66.49
2019-03-17T21:27:46.541Z,66.43
2019-03-17T21:30:29.710Z,66.47
2019-03-17T21:32:57.921Z,67.00
2019-03-17T21:35:26.117Z,67.05
2019-03-17T21:37:54.325Z,67.35
2019-03-17T21:40:22.516Z,67.52
2019-03-17T21:42:50.726Z,67.73
2019-03-17T21:45:18.925Z,67.90
2019-03-17T21:47:47.184Z,67.77
2019-03-17T21:50:19.273Z,68.06
2019-03-17T21:52:47.487Z,69.02
2019-03-17T21:55:15.687Z,68.87
2019-03-17T21:57:44.127Z,69.09
2019-03-17T22:00:21.437Z,69.63
2019-03-17T22:02:49.631Z,70.22
2019-03-17T22:05:17.836Z,69.94
2019-03-17T22:07:49.999Z,71.01
2019-03-17T22:10:22.085Z,71.32
2019-03-17T22:12:50.277Z,71.71
2019-03-17T22:15:18.637Z,73.46
2019-03-17T22:17:46.851Z,73.71
2019-03-17T22:20:15.380Z,73.94
2019-03-17T22:22:43.582Z,74.46
2019-03-17T22:25:13.868Z,73.78
2019-03-17T22:27:42.078Z,73.95
2019-03-17T22:30:17.294Z,74.23
2019-03-17T22:32:45.498Z,73.53
2019-03-17T22:35:13.689Z,73.94
2019-03-17T22:37:41.887Z,73.93
2019-03-17T22:40:15.198Z,72.97
2019-03-17T22:42:43.383Z,73.46
2019-03-17T22:45:15.434Z,72.98
2019-03-17T22:47:43.633Z,72.94
2019-03-17T22:50:16.517Z,72.89
2019-03-17T22:52:44.697Z,73.27
2019-03-17T22:55:12.884Z,73.23
2019-03-17T22:57:41.099Z,74.08
2019-03-17T23:00:33.365Z,73.74
2019-03-17T23:03:01.574Z,73.53
2019-03-17T23:05:29.763Z,74.41
2019-03-17T23:07:57.957Z,73.86
2019-03-17T23:10:26.164Z,73.81
2019-03-17T23:12:54.357Z,74.74
2019-03-17T23:15:22.567Z,74.10
2019-03-17T23:17:50.776Z,74.20
2019-03-17T23:20:18.957Z,74.29
2019-03-17T23:22:47.165Z,73.96
2019-03-17T23:25:15.357Z,74.35
2019-03-17T23:27:43.573Z,74.84
2019-03-17T23:30:14.636Z,75.10
2019-03-17T23:32:42.832Z,74.78
2019-03-17T23:35:11.031Z,74.46
2019-03-17T23:37:39.220Z,75.39
2019-03-17T23:40:09.893Z,74.72
2019-03-17T23:42:38.128Z,74.86
2019-03-17T23:45:08.274Z,74.38
2019-03-17T23:47:36.468Z,73.94
2019-03-17T23:50:07.164Z,73.66
2019-03-17T23:52:35.360Z,74.37
2019-03-17T23:55:04.021Z,74.36
2019-03-17T23:57:33.516Z,74.61
